createdAt,value
2023-01-20T00:00:17.300Z,14.88
2023-01-20T00:02:43.904Z,14.32
2023-01-20T00:05:10.542Z,14.52
2023-01-20T00:07:37.129Z,15.23
2023-01-20T00:10:03.940Z,15.10
2023-01-20T00:12:31.936Z,15.35
2023-01-20T00:14:58.612Z,15.40
2023-01-20T00:17:25.242Z,15.38
2023-01-20T00:19:51.792Z,15.27
2023-01-20T00:22:18.379Z,14.52
2023-01-20T00:24:44.906Z,14.57
2023-01-20T00:27:11.427Z,14.45
2023-01-20T00:29:37.925Z,14.48
2023-01-20T00:32:04.660Z,13.82
2023-01-20T00:34:31.222Z,14.60
2023-01-20T00:36:57.753Z,13.60
2023-01-20T00:39:24.261Z,15.60
2023-01-20T00:41:50.796Z,15.93
2023-01-20T00:44:17.409Z,15.55
2023-01-20T00:46:44.014Z,15.30
2023-01-20T00:49:10.947Z,15.50
2023-01-20T00:51:37.465Z,15.75
2023-01-20T00:54:04.401Z,15.43
2023-01-20T00:56:31.081Z,15.45
2023-01-20T00:58:57.628Z,15.77
2023-01-20T01:01:24.271Z,15.48
2023-01-20T01:03:54.502Z,14.75
2023-01-20T01:06:21.225Z,15.43
2023-01-20T01:08:47.776Z,15.55
2023-01-20T01:11:14.840Z,14.95
2023-01-20T01:13:41.487Z,15.02
2023-01-20T01:16:12.901Z,15.90
2023-01-20T01:18:39.884Z,15.00
2023-01-20T01:21:08.125Z,15.35
2023-01-20T01:23:34.764Z,14.77
2023-01-20T01:26:01.409Z,14.48
2023-01-20T01:28:28.010Z,14.35
2023-01-20T01:30:54.605Z,13.70
2023-01-20T01:33:21.253Z,13.55
2023-01-20T01:36:02.144Z,14.25
2023-01-20T01:38:29.216Z,13.80
2023-01-20T01:40:56.173Z,13.52
2023-01-20T01:43:34.288Z,12.43
2023-01-20T01:46:00.913Z,13.52
2023-01-20T01:48:36.962Z,14.15
2023-01-20T01:51:18.148Z,13.27
2023-01-20T01:53:48.173Z,13.48
2023-01-20T01:56:16.021Z,14.35
2023-01-20T01:58:46.076Z,14.07
2023-01-20T02:01:13.156Z,12.95
2023-01-20T02:04:13.086Z,14.95
2023-01-20T02:06:46.066Z,13.80
2023-01-20T02:09:13.136Z,14.25
2023-01-20T02:11:43.969Z,12.38
2023-01-20T02:14:12.379Z,14.10
2023-01-20T02:17:10.050Z,13.63
2023-01-20T02:19:54.633Z,15.07
2023-01-20T02:22:30.276Z,13.70
2023-01-20T02:25:04.046Z,13.55
2023-01-20T02:27:33.401Z,15.55
2023-01-20T02:30:12.245Z,14.05
2023-01-20T02:33:09.325Z,15.50
2023-01-20T02:35:37.645Z,15.68
2023-01-20T02:38:11.003Z,14.40
2023-01-20T02:40:52.976Z,15.65
2023-01-20T02:43:49.163Z,15.95
2023-01-20T02:46:21.169Z,16.75
2023-01-20T02:48:52.286Z,15.32
2023-01-20T02:51:35.882Z,16.40
2023-01-20T02:54:06.150Z,16.80
2023-01-20T02:56:34.506Z,17.73
2023-01-20T02:59:15.466Z,17.45
2023-01-20T03:01:47.206Z,17.58
2023-01-20T03:04:18.564Z,17.80
2023-01-20T03:06:50.052Z,18.95
2023-01-20T03:09:19.131Z,18.67
2023-01-20T03:11:51.218Z,19.02
2023-01-20T03:14:17.857Z,18.65
2023-01-20T03:16:48.242Z,17.13
2023-01-20T03:19:15.220Z,18.38
2023-01-20T03:21:42.077Z,19.30
2023-01-20T03:24:08.966Z,18.50
2023-01-20T03:26:35.520Z,18.92
2023-01-20T03:29:11.295Z,18.58
2023-01-20T03:31:50.381Z,19.33
2023-01-20T03:34:20.124Z,19.50
2023-01-20T03:36:47.023Z,18.10
2023-01-20T03:39:13.883Z,19.98
2023-01-20T03:41:56.466Z,18.67
2023-01-20T03:44:50.339Z,20.65
2023-01-20T03:47:55.813Z,19.90
2023-01-20T03:50:43.298Z,18.30
2023-01-20T03:53:18.834Z,23.38
2023-01-20T03:55:50.087Z,21.48
2023-01-20T03:58:20.786Z,21.30
2023-01-20T04:00:48.960Z,21.42
2023-01-20T04:03:20.635Z,25.73
2023-01-20T04:05:48.695Z,24.00
2023-01-20T04:08:17.185Z,23.15
2023-01-20T04:10:45.651Z,21.52
2023-01-20T04:13:12.285Z,23.85
2023-01-20T04:15:44.328Z,23.35
2023-01-20T04:18:12.188Z,25.17
2023-01-20T04:20:38.838Z,24.08
2023-01-20T04:23:06.731Z,24.27
2023-01-20T04:25:33.485Z,24.15
2023-01-20T04:28:00.148Z,25.23
2023-01-20T04:30:26.829Z,25.70
2023-01-20T04:32:53.532Z,25.58
2023-01-20T04:35:20.491Z,27.38
2023-01-20T04:37:47.117Z,25.35
2023-01-20T04:40:13.860Z,25.83
2023-01-20T04:42:40.351Z,24.52
2023-01-20T04:45:07.341Z,24.23
2023-01-20T04:47:33.992Z,24.20
2023-01-20T04:50:00.668Z,25.58
2023-01-20T04:52:27.297Z,24.13
2023-01-20T04:54:53.809Z,25.15
2023-01-20T04:57:20.850Z,24.13
2023-01-20T04:59:47.635Z,22.20
2023-01-20T05:02:14.256Z,22.13
2023-01-20T05:04:40.787Z,23.77
2023-01-20T05:07:07.333Z,23.77
2023-01-20T05:09:33.892Z,24.70
2023-01-20T05:12:00.401Z,24.95
2023-01-20T05:14:26.887Z,23.52
2023-01-20T05:16:53.411Z,25.23
2023-01-20T05:19:19.898Z,26.65
2023-01-20T05:21:46.465Z,27.92
2023-01-20T05:24:13.046Z,26.27
2023-01-20T05:26:39.897Z,25.75
2023-01-20T05:29:06.611Z,25.98
2023-01-20T05:31:33.237Z,24.63
2023-01-20T05:34:00.012Z,24.25
2023-01-20T05:36:28.780Z,25.10
2023-01-20T05:38:55.288Z,24.10
2023-01-20T05:41:22.141Z,23.27
2023-01-20T05:43:48.714Z,24.05
2023-01-20T05:46:15.705Z,25.65
2023-01-20T05:48:42.313Z,23.88
2023-01-20T05:51:08.900Z,26.60
2023-01-20T05:53:35.385Z,24.00
2023-01-20T05:56:02.849Z,24.42
2023-01-20T05:58:29.861Z,27.45
2023-01-20T06:01:07.461Z,24.88
2023-01-20T06:03:34.270Z,26.00
2023-01-20T06:06:02.530Z,26.55
2023-01-20T06:08:29.486Z,27.25
2023-01-20T06:10:56.050Z,27.85
2023-01-20T06:13:22.605Z,26.55
2023-01-20T06:15:53.540Z,26.48
2023-01-20T06:20:47.638Z,25.60
2023-01-20T06:23:14.887Z,29.05
2023-01-20T06:25:42.161Z,29.75
2023-01-20T06:28:08.981Z,28.58
2023-01-20T06:30:35.503Z,29.65
2023-01-20T06:33:02.101Z,29.45
2023-01-20T06:35:28.627Z,30.85
2023-01-20T06:37:58.235Z,28.83
2023-01-20T06:40:24.833Z,31.27
2023-01-20T06:42:51.410Z,27.30
2023-01-20T06:45:17.969Z,27.75
2023-01-20T06:47:48.827Z,29.40
2023-01-20T06:50:16.589Z,31.23
2023-01-20T06:52:43.183Z,31.17
2023-01-20T06:55:09.691Z,29.38
2023-01-20T06:57:36.434Z,26.75
2023-01-20T07:00:03.537Z,26.90
2023-01-20T07:02:30.209Z,28.30
2023-01-20T07:04:56.967Z,29.90
2023-01-20T07:07:23.554Z,29.40
2023-01-20T07:09:51.925Z,29.70
2023-01-20T07:12:18.432Z,29.02
2023-01-20T07:14:44.930Z,28.42
2023-01-20T07:17:12.293Z,30.27
2023-01-20T07:19:38.915Z,32.42
2023-01-20T07:22:05.518Z,32.72
2023-01-20T07:24:47.103Z,32.10
2023-01-20T07:27:15.076Z,31.30
2023-01-20T07:29:41.922Z,34.95
2023-01-20T07:32:08.574Z,32.47
2023-01-20T07:34:35.112Z,33.58
2023-01-20T07:37:02.387Z,36.58
2023-01-20T07:39:29.001Z,31.52
2023-01-20T07:41:55.556Z,34.80
2023-01-20T07:44:22.107Z,34.03
2023-01-20T07:46:48.759Z,31.75
2023-01-20T07:49:15.267Z,33.22
2023-01-20T07:51:43.362Z,33.65
2023-01-20T07:54:11.652Z,32.10
2023-01-20T07:56:38.226Z,34.08
2023-01-20T07:59:04.769Z,33.85
2023-01-20T08:01:32.595Z,33.55
2023-01-20T08:04:02.582Z,33.15
2023-01-20T08:06:29.668Z,34.13
2023-01-20T08:08:59.921Z,34.10
2023-01-20T08:11:26.411Z,30.52
2023-01-20T08:13:53.061Z,33.80
2023-01-20T08:16:20.259Z,33.33
2023-01-20T08:18:47.268Z,33.22
2023-01-20T08:21:28.879Z,32.80
2023-01-20T08:23:56.233Z,33.90
2023-01-20T08:26:25.040Z,33.63
2023-01-20T08:28:52.267Z,31.98
2023-01-20T08:31:21.245Z,32.95
2023-01-20T08:33:48.162Z,33.60
2023-01-20T08:36:17.374Z,33.17
2023-01-20T08:38:44.229Z,32.85
2023-01-20T08:41:19.720Z,31.73
2023-01-20T08:43:46.870Z,30.45
2023-01-20T08:46:15.771Z,30.15
2023-01-20T08:48:42.863Z,30.85
2023-01-20T08:51:14.102Z,30.52
2023-01-20T08:53:41.179Z,31.83
2023-01-20T08:56:09.001Z,31.77
2023-01-20T08:58:35.568Z,31.00
2023-01-20T09:01:02.361Z,30.45
2023-01-20T09:03:28.909Z,32.47
2023-01-20T09:05:55.438Z,31.40
2023-01-20T09:08:22.336Z,31.60
2023-01-20T09:10:48.946Z,31.10
2023-01-20T09:13:15.508Z,32.33
2023-01-20T09:15:42.175Z,34.08
2023-01-20T09:18:08.807Z,32.03
2023-01-20T09:20:35.440Z,30.70
2023-01-20T09:23:03.139Z,30.95
2023-01-20T09:25:29.931Z,31.85
2023-01-20T09:28:00.405Z,32.08
2023-01-20T09:30:27.111Z,28.05
2023-01-20T09:32:56.258Z,29.85
2023-01-20T09:35:22.762Z,30.27
2023-01-20T09:38:07.905Z,31.83
2023-01-20T09:41:18.558Z,30.00
2023-01-20T09:43:56.846Z,33.53
2023-01-20T09:46:36.436Z,30.33
2023-01-20T09:49:40.266Z,29.15
2023-01-20T09:52:31.655Z,32.20
2023-01-20T09:55:04.384Z,31.60
2023-01-20T09:57:34.106Z,32.47
2023-01-20T10:00:07.696Z,30.25
2023-01-20T10:02:36.183Z,31.55
2023-01-20T10:05:12.732Z,30.38
2023-01-20T10:07:46.280Z,29.85
2023-01-20T10:10:41.146Z,31.67
2023-01-20T10:13:16.612Z,30.88
2023-01-20T10:15:47.576Z,28.98
2023-01-20T10:18:39.320Z,29.48
2023-01-20T10:21:13.496Z,29.23
2023-01-20T10:23:58.736Z,29.42
2023-01-20T10:26:30.500Z,28.63
2023-01-20T10:29:02.035Z,29.17
2023-01-20T10:31:31.809Z,29.10
2023-01-20T10:34:19.011Z,28.10
2023-01-20T10:36:50.548Z,28.38
2023-01-20T10:39:41.172Z,27.95
2023-01-20T10:42:13.639Z,29.83
2023-01-20T10:44:40.408Z,29.00
2023-01-20T10:47:26.089Z,31.77
2023-01-20T10:50:13.296Z,31.15
2023-01-20T10:52:58.716Z,26.85
2023-01-20T10:55:51.590Z,26.45
2023-01-20T10:58:24.956Z,26.52
2023-01-20T11:00:51.900Z,28.40
2023-01-20T11:03:20.237Z,28.02
2023-01-20T11:05:48.029Z,25.30
2023-01-20T11:08:20.855Z,26.20
2023-01-20T11:10:49.825Z,29.13
2023-01-20T11:13:16.997Z,29.58
2023-01-20T11:15:49.601Z,29.33
2023-01-20T11:18:16.048Z,29.40
2023-01-20T11:20:48.858Z,27.95
2023-01-20T11:23:39.786Z,25.92
2023-01-20T11:26:11.191Z,23.27
2023-01-20T11:28:57.278Z,23.88
2023-01-20T11:31:35.843Z,26.30
2023-01-20T11:34:16.102Z,26.13
2023-01-20T11:36:45.304Z,27.70
2023-01-20T11:39:30.795Z,27.52
2023-01-20T11:42:13.501Z,27.05
2023-01-20T11:44:43.739Z,28.00
2023-01-20T11:47:24.540Z,25.60
2023-01-20T11:50:09.370Z,25.70
2023-01-20T11:52:38.172Z,23.13
2023-01-20T11:55:18.498Z,24.33
2023-01-20T11:57:58.875Z,26.90
2023-01-20T12:00:39.160Z,24.95
2023-01-20T12:03:30.537Z,25.38
2023-01-20T12:06:26.164Z,22.83
2023-01-20T12:08:56.473Z,25.10
2023-01-20T12:11:38.906Z,23.48
2023-01-20T12:14:25.324Z,25.15
2023-01-20T12:17:34.072Z,22.73
2023-01-20T12:20:18.774Z,24.23
2023-01-20T12:22:54.568Z,22.60
2023-01-20T12:25:23.944Z,22.75
2023-01-20T12:27:54.622Z,22.60
2023-01-20T12:30:31.848Z,23.48
2023-01-20T12:32:58.592Z,21.30
2023-01-20T12:35:28.201Z,25.20
2023-01-20T12:38:07.246Z,23.52
2023-01-20T12:40:48.255Z,23.95
2023-01-20T12:43:32.899Z,22.35
2023-01-20T12:46:07.598Z,25.33
2023-01-20T12:48:53.001Z,24.92
2023-01-20T12:51:37.573Z,23.80
2023-01-20T12:54:30.343Z,22.98
2023-01-20T12:57:30.848Z,24.73
2023-01-20T13:00:19.694Z,24.67
2023-01-20T13:03:10.157Z,23.77
2023-01-20T13:06:07.929Z,22.55
2023-01-20T13:08:58.338Z,23.30
2023-01-20T13:11:53.821Z,21.50
2023-01-20T13:14:40.503Z,20.92
2023-01-20T13:17:26.007Z,22.17
2023-01-20T13:19:56.923Z,23.35
2023-01-20T13:22:25.183Z,23.75
2023-01-20T13:24:56.454Z,23.73
2023-01-20T13:27:43.273Z,21.85
2023-01-20T13:30:43.163Z,22.58
2023-01-20T13:33:34.800Z,23.02
2023-01-20T13:36:14.497Z,23.88
2023-01-20T13:38:41.148Z,24.05
2023-01-20T13:41:09.396Z,24.70
2023-01-20T13:43:37.856Z,25.02
2023-01-20T13:46:17.584Z,22.38
2023-01-20T13:49:22.920Z,22.85
2023-01-20T13:51:49.560Z,20.38
2023-01-20T13:54:34.209Z,21.95
2023-01-20T13:57:20.302Z,22.42
2023-01-20T13:59:46.947Z,23.40
2023-01-20T14:02:28.457Z,22.45
2023-01-20T14:04:55.435Z,24.27
2023-01-20T14:07:29.855Z,22.25
2023-01-20T14:09:58.547Z,22.30
2023-01-20T14:12:25.235Z,23.00
2023-01-20T14:14:52.265Z,22.92
2023-01-20T14:17:22.719Z,22.33
2023-01-20T14:19:56.127Z,22.33
2023-01-20T14:22:25.188Z,22.20
2023-01-20T14:24:53.158Z,22.17
2023-01-20T14:27:28.064Z,21.98
2023-01-20T14:29:56.663Z,23.50
2023-01-20T14:32:33.929Z,22.48
2023-01-20T14:35:01.814Z,21.92
2023-01-20T14:37:38.199Z,21.95
2023-01-20T14:40:24.530Z,23.17
2023-01-20T14:42:58.565Z,21.60
2023-01-20T14:45:27.286Z,22.67
2023-01-20T14:47:54.052Z,22.40
2023-01-20T14:50:21.309Z,23.25
2023-01-20T14:52:48.275Z,21.67
2023-01-20T14:55:31.562Z,21.42
2023-01-20T14:57:58.466Z,22.63
2023-01-20T15:00:32.710Z,21.65
2023-01-20T15:03:15.457Z,23.35
2023-01-20T15:05:53.792Z,23.25
2023-01-20T15:08:26.690Z,24.88
2023-01-20T15:11:22.571Z,23.13
2023-01-20T15:13:53.011Z,24.08
2023-01-20T15:16:25.170Z,23.60
2023-01-20T15:19:13.302Z,22.45
2023-01-20T15:21:41.556Z,22.17
2023-01-20T15:24:30.797Z,22.33
2023-01-20T15:26:59.090Z,23.02
2023-01-20T15:29:28.321Z,21.58
2023-01-20T15:31:56.854Z,22.02
2023-01-20T15:34:23.500Z,22.58
2023-01-20T15:36:51.526Z,22.40
2023-01-20T15:39:20.568Z,23.15
2023-01-20T15:41:48.750Z,21.83
2023-01-20T15:44:15.624Z,23.63
2023-01-20T15:46:42.220Z,23.95
2023-01-20T15:49:12.979Z,24.23
2023-01-20T15:51:39.565Z,24.42
2023-01-20T15:54:09.367Z,25.10
2023-01-20T15:56:38.805Z,25.17
2023-01-20T15:59:16.629Z,25.70
2023-01-20T16:01:47.497Z,27.25
2023-01-20T16:04:14.040Z,26.42
2023-01-20T16:06:40.903Z,26.13
2023-01-20T16:09:25.277Z,26.45
2023-01-20T16:11:52.021Z,26.58
2023-01-20T16:14:18.575Z,28.40
2023-01-20T16:16:45.135Z,27.23
2023-01-20T16:19:14.868Z,28.05
2023-01-20T16:21:43.755Z,25.58
2023-01-20T16:24:12.530Z,26.52
2023-01-20T16:26:39.112Z,26.23
2023-01-20T16:29:05.595Z,27.02
2023-01-20T16:31:33.482Z,26.52
2023-01-20T16:34:00.200Z,25.30
2023-01-20T16:36:26.748Z,25.83
2023-01-20T16:38:53.367Z,27.67
2023-01-20T16:41:22.208Z,28.83
2023-01-20T16:43:51.406Z,27.33
2023-01-20T16:46:20.339Z,28.38
2023-01-20T16:48:46.813Z,27.98
2023-01-20T16:51:19.761Z,30.27
2023-01-20T16:53:46.310Z,28.73
2023-01-20T16:56:14.205Z,27.58
2023-01-20T16:58:41.144Z,29.77
2023-01-20T17:01:21.141Z,28.63
2023-01-20T17:03:48.193Z,28.20
2023-01-20T17:06:17.991Z,29.75
2023-01-20T17:08:45.520Z,28.75
2023-01-20T17:11:20.207Z,31.27
2023-01-20T17:13:46.747Z,31.77
2023-01-20T17:16:13.463Z,30.27
2023-01-20T17:18:45.701Z,31.23
2023-01-20T17:21:13.440Z,31.88
2023-01-20T17:23:40.399Z,31.35
2023-01-20T17:26:08.308Z,34.20
2023-01-20T17:28:35.192Z,32.42
2023-01-20T17:31:02.570Z,34.13
2023-01-20T17:33:29.306Z,35.67
2023-01-20T17:36:00.135Z,32.42
2023-01-20T17:38:28.201Z,32.15
2023-01-20T17:40:54.760Z,32.60
2023-01-20T17:43:21.259Z,32.10
2023-01-20T17:45:47.828Z,31.10
2023-01-20T17:48:14.432Z,30.90
2023-01-20T17:50:41.083Z,30.23
2023-01-20T17:53:07.597Z,31.10
2023-01-20T17:55:34.334Z,35.35
2023-01-20T17:58:00.868Z,33.80
2023-01-20T18:00:27.393Z,32.42
2023-01-20T18:02:55.911Z,33.80
2023-01-20T18:05:22.401Z,34.97
2023-01-20T18:07:50.049Z,32.28
2023-01-20T18:10:17.376Z,33.03
2023-01-20T18:12:44.182Z,32.22
2023-01-20T18:15:10.784Z,32.65
2023-01-20T18:17:38.167Z,33.22
2023-01-20T18:20:05.260Z,32.40
2023-01-20T18:22:31.818Z,33.60
2023-01-20T18:24:58.317Z,33.33
2023-01-20T18:27:24.826Z,30.42
2023-01-20T18:29:51.564Z,31.15
2023-01-20T18:32:18.097Z,33.03
2023-01-20T18:34:44.589Z,31.52
2023-01-20T18:37:11.147Z,31.85
2023-01-20T18:39:37.781Z,33.28
2023-01-20T18:42:04.507Z,33.25
2023-01-20T18:44:31.032Z,32.10
2023-01-20T18:46:57.531Z,33.90
2023-01-20T18:49:24.111Z,32.33
2023-01-20T18:51:50.613Z,32.58
2023-01-20T18:54:18.895Z,34.67
2023-01-20T18:56:45.393Z,32.15
2023-01-20T18:59:11.962Z,32.35
2023-01-20T19:01:40.374Z,31.98
2023-01-20T19:04:09.272Z,30.85
2023-01-20T19:06:38.064Z,33.17
2023-01-20T19:09:05.672Z,31.27
2023-01-20T19:11:35.760Z,32.10
2023-01-20T19:14:03.208Z,29.57
2023-01-20T19:16:34.243Z,31.42
2023-01-20T19:19:02.811Z,29.23
2023-01-20T19:21:33.282Z,31.90
2023-01-20T19:24:01.538Z,30.13
2023-01-20T19:26:28.657Z,31.00
2023-01-20T19:29:02.276Z,28.88
2023-01-20T19:31:30.942Z,29.02
2023-01-20T19:33:57.620Z,30.13
2023-01-20T19:36:24.142Z,28.77
2023-01-20T19:38:53.518Z,30.08
2023-01-20T19:41:23.057Z,27.52
2023-01-20T19:43:55.322Z,30.83
2023-01-20T19:46:24.350Z,30.67
2023-01-20T19:48:52.278Z,31.10
2023-01-20T19:51:19.781Z,31.63
2023-01-20T19:53:47.161Z,29.13
2023-01-20T19:56:16.287Z,29.67
2023-01-20T19:58:43.631Z,29.08
2023-01-20T20:01:29.126Z,29.27
2023-01-20T20:03:57.505Z,27.58
2023-01-20T20:06:28.627Z,25.63
2023-01-20T20:09:04.310Z,25.83
2023-01-20T20:11:31.227Z,26.88
2023-01-20T20:13:59.674Z,25.92
2023-01-20T20:16:27.900Z,28.33
2023-01-20T20:18:55.547Z,27.20
2023-01-20T20:21:22.430Z,28.38
2023-01-20T20:23:50.462Z,28.60
2023-01-20T20:26:17.222Z,28.90
2023-01-20T20:28:43.740Z,28.08
2023-01-20T20:31:10.389Z,29.75
2023-01-20T20:33:37.014Z,27.83
2023-01-20T20:36:10.354Z,27.25
2023-01-20T20:38:37.140Z,27.40
2023-01-20T20:41:05.131Z,28.23
2023-01-20T20:43:31.702Z,27.80
2023-01-20T20:46:05.655Z,30.05
2023-01-20T20:48:33.608Z,28.80
2023-01-20T20:51:11.049Z,27.83
2023-01-20T20:53:37.652Z,28.75
2023-01-20T20:56:13.266Z,29.17
2023-01-20T20:58:55.220Z,27.27
2023-01-20T21:01:27.938Z,28.23
2023-01-20T21:03:57.407Z,27.45
2023-01-20T21:06:24.349Z,27.55
2023-01-20T21:08:51.168Z,24.75
2023-01-20T21:11:18.554Z,27.15
2023-01-20T21:13:45.087Z,26.20
2023-01-20T21:16:22.224Z,27.17
2023-01-20T21:18:49.959Z,26.75
2023-01-20T21:21:19.538Z,25.73
2023-01-20T21:23:54.620Z,26.42
2023-01-20T21:26:21.781Z,26.92
2023-01-20T21:28:51.222Z,24.38
2023-01-20T21:31:21.251Z,25.92
2023-01-20T21:33:53.035Z,24.97
2023-01-20T21:36:19.543Z,25.40
2023-01-20T21:38:48.682Z,25.02
2023-01-20T21:41:15.510Z,24.10
2023-01-20T21:44:02.811Z,25.30
2023-01-20T21:46:31.842Z,26.27
2023-01-20T21:49:17.283Z,25.38
2023-01-20T21:52:22.062Z,23.70
2023-01-20T21:54:48.610Z,23.63
2023-01-20T21:57:15.149Z,22.55
2023-01-20T21:59:42.194Z,24.55
2023-01-20T22:02:12.114Z,23.27
2023-01-20T22:04:39.941Z,24.08
2023-01-20T22:07:06.867Z,24.50
2023-01-20T22:09:33.665Z,22.85
2023-01-20T22:12:00.233Z,24.42
2023-01-20T22:14:26.767Z,23.92
2023-01-20T22:16:53.282Z,22.33
2023-01-20T22:19:19.760Z,21.23
2023-01-20T22:21:46.275Z,22.48
2023-01-20T22:24:12.794Z,21.90
2023-01-20T22:26:39.714Z,20.90
2023-01-20T22:29:06.248Z,21.77
2023-01-20T22:31:34.229Z,20.75
2023-01-20T22:34:04.420Z,21.95
2023-01-20T22:36:30.950Z,21.67
2023-01-20T22:38:57.523Z,20.95
2023-01-20T22:41:24.037Z,21.60
2023-01-20T22:43:51.096Z,21.88
2023-01-20T22:46:31.996Z,23.60
2023-01-20T22:48:59.241Z,22.95
2023-01-20T22:51:28.340Z,23.02
2023-01-20T22:53:56.963Z,21.88
2023-01-20T22:56:28.601Z,20.73
2023-01-20T22:58:56.047Z,18.75
2023-01-20T23:01:25.500Z,18.90
2023-01-20T23:03:56.593Z,17.75
2023-01-20T23:08:50.470Z,18.00
2023-01-20T23:11:18.539Z,17.27
2023-01-20T23:13:45.559Z,16.98
2023-01-20T23:16:18.744Z,19.02
2023-01-20T23:18:46.623Z,17.10
2023-01-20T23:21:13.372Z,17.83
2023-01-20T23:23:39.911Z,16.77
2023-01-20T23:26:08.653Z,16.65
2023-01-20T23:28:35.306Z,16.50
2023-01-20T23:31:07.160Z,17.20
2023-01-20T23:33:34.124Z,17.88
2023-01-20T23:36:12.300Z,17.98
2023-01-20T23:38:38.795Z,17.55
2023-01-20T23:41:05.486Z,17.73
2023-01-20T23:43:32.238Z,15.90
2023-01-20T23:46:00.366Z,16.88
2023-01-20T23:48:27.396Z,15.77
2023-01-20T23:50:54.776Z,16.80
2023-01-20T23:53:21.266Z,16.65
2023-01-20T23:55:48.140Z,15.45
2023-01-20T23:58:14.986Z,15.15
